createdAt,value
2023-01-25T00:00:55.019Z,102924.53
2023-01-25T00:03:24.999Z,102780.47
2023-01-25T00:06:01.502Z,102925.19
2023-01-25T00:08:30.123Z,102906.06
2023-01-25T00:10:58.752Z,102920.13
2023-01-25T00:13:27.569Z,102908.84
2023-01-25T00:16:01.711Z,102915.72
2023-01-25T00:18:31.728Z,102893.16
2023-01-25T00:21:00.509Z,102909.28
2023-01-25T00:23:29.232Z,102897.81
2023-01-25T00:26:00.758Z,102897.63
2023-01-25T00:28:29.261Z,102896.97
2023-01-25T00:31:01.333Z,102889.47
2023-01-25T00:33:50.588Z,102888.13
2023-01-25T00:36:35.368Z,102825.25
2023-01-25T00:39:07.057Z,102874.09
2023-01-25T00:41:35.595Z,102814.53
2023-01-25T00:44:04.864Z,102862.09
2023-01-25T00:46:33.403Z,102839.84
2023-01-25T00:49:03.650Z,102864.56
2023-01-25T00:51:32.508Z,102857.31
2023-01-25T00:54:01.449Z,102854.06
2023-01-25T00:56:30.267Z,102853.63
2023-01-25T00:58:58.634Z,102852.00
2023-01-25T01:01:27.462Z,102802.19
2023-01-25T01:03:55.988Z,102624.63
2023-01-25T01:06:26.089Z,102834.38
2023-01-25T01:08:55.403Z,102827.59
2023-01-25T01:11:25.155Z,102827.06
2023-01-25T01:13:53.683Z,102813.50
2023-01-25T01:16:22.185Z,102770.06
2023-01-25T01:18:54.317Z,102814.00
2023-01-25T01:21:23.386Z,102809.00
2023-01-25T01:23:55.318Z,102813.72
2023-01-25T01:26:24.158Z,102804.28
2023-01-25T01:28:52.689Z,102800.13
2023-01-25T01:31:24.593Z,102797.66
2023-01-25T01:34:05.163Z,102789.81
2023-01-25T01:36:33.787Z,102707.47
2023-01-25T01:39:04.937Z,102790.66
2023-01-25T01:41:33.465Z,102789.38
2023-01-25T01:44:02.315Z,102780.56
2023-01-25T01:46:37.472Z,102697.56
2023-01-25T01:49:18.135Z,102786.16
2023-01-25T01:51:53.910Z,102588.78
2023-01-25T01:54:35.446Z,102774.81
2023-01-25T01:57:15.486Z,102748.41
2023-01-25T01:59:52.012Z,102779.22
2023-01-25T02:02:25.289Z,102778.97
2023-01-25T02:05:00.985Z,102781.13
2023-01-25T02:07:35.855Z,102770.47
2023-01-25T02:10:10.770Z,102776.59
2023-01-25T02:12:41.830Z,102774.72
2023-01-25T02:15:12.168Z,102735.44
2023-01-25T02:17:42.989Z,102766.88
2023-01-25T02:20:27.422Z,102767.88
2023-01-25T02:23:04.780Z,102679.19
2023-01-25T02:25:34.811Z,102728.53
2023-01-25T02:28:10.382Z,102768.69
2023-01-25T02:30:39.258Z,102735.72
2023-01-25T02:33:07.746Z,102543.25
2023-01-25T02:35:45.048Z,102769.66
2023-01-25T02:38:16.510Z,102730.22
2023-01-25T02:40:55.243Z,102776.44
2023-01-25T02:43:30.383Z,102770.34
2023-01-25T02:46:06.585Z,102771.41
2023-01-25T02:48:35.091Z,102766.84
2023-01-25T02:51:03.652Z,102767.72
2023-01-25T02:53:32.156Z,102773.28
2023-01-25T02:56:02.646Z,102712.41
2023-01-25T02:58:35.385Z,102650.28
2023-01-25T03:01:04.258Z,102759.97
2023-01-25T03:03:33.365Z,102760.78
2023-01-25T03:06:02.153Z,102755.66
2023-01-25T03:08:31.857Z,102760.06
2023-01-25T03:11:03.293Z,102760.22
2023-01-25T03:13:34.013Z,102743.91
2023-01-25T03:16:05.177Z,102750.50
2023-01-25T03:18:35.107Z,102746.38
2023-01-25T03:21:10.309Z,102752.44
2023-01-25T03:23:39.471Z,102745.56
2023-01-25T03:26:13.558Z,102588.63
2023-01-25T03:28:57.310Z,102753.50
2023-01-25T03:31:26.504Z,102750.34
2023-01-25T03:33:55.003Z,102750.25
2023-01-25T03:36:27.948Z,102747.97
2023-01-25T03:38:56.689Z,102753.09
2023-01-25T03:41:26.586Z,102710.97
2023-01-25T03:43:58.998Z,102741.47
2023-01-25T03:46:29.385Z,102737.19
2023-01-25T03:49:01.003Z,102734.81
2023-01-25T03:51:29.885Z,102731.50
2023-01-25T03:53:59.124Z,102717.28
2023-01-25T03:56:30.985Z,102721.84
2023-01-25T03:59:07.008Z,102720.28
2023-01-25T04:01:36.568Z,102677.56
2023-01-25T04:04:05.118Z,102713.69
2023-01-25T04:06:34.520Z,102688.38
2023-01-25T04:09:04.549Z,102711.22
2023-01-25T04:11:43.876Z,102709.72
2023-01-25T04:14:14.252Z,102673.34
2023-01-25T04:16:52.513Z,102635.09
2023-01-25T04:19:28.220Z,102704.28
2023-01-25T04:22:00.229Z,102623.78
2023-01-25T04:24:34.347Z,102650.56
2023-01-25T04:27:07.347Z,102643.38
2023-01-25T04:29:42.265Z,102593.47
2023-01-25T04:32:16.698Z,102695.56
2023-01-25T04:34:45.392Z,102609.97
2023-01-25T04:37:20.855Z,102665.66
2023-01-25T04:39:55.249Z,102681.41
2023-01-25T04:42:26.577Z,102685.22
2023-01-25T04:44:58.389Z,102672.22
2023-01-25T04:47:28.537Z,102607.59
2023-01-25T04:49:58.011Z,102560.53
2023-01-25T04:52:30.559Z,102676.66
2023-01-25T04:54:59.279Z,102671.38
2023-01-25T04:57:29.455Z,102664.50
2023-01-25T04:59:59.598Z,102655.00
2023-01-25T05:02:29.712Z,102654.19
2023-01-25T05:04:58.347Z,102644.63
2023-01-25T05:07:27.194Z,102593.81
2023-01-25T05:09:55.847Z,102646.63
2023-01-25T05:12:26.205Z,102587.88
2023-01-25T05:15:04.312Z,102622.75
2023-01-25T05:17:32.866Z,102630.03
2023-01-25T05:20:02.192Z,102646.06
2023-01-25T05:22:30.858Z,102649.63
2023-01-25T05:25:01.906Z,102650.53
2023-01-25T05:27:30.148Z,102646.94
2023-01-25T05:29:59.049Z,102658.38
2023-01-25T05:32:38.644Z,102437.13
2023-01-25T05:35:10.387Z,102405.97
2023-01-25T05:37:40.548Z,102653.00
2023-01-25T05:40:16.184Z,102648.66
2023-01-25T05:42:45.900Z,102649.56
2023-01-25T05:45:18.927Z,102646.13
2023-01-25T05:47:54.938Z,102484.75
2023-01-25T05:50:24.017Z,102647.59
2023-01-25T05:53:02.044Z,102471.63
2023-01-25T05:55:31.952Z,102646.84
2023-01-25T05:58:05.924Z,102641.53
2023-01-25T06:00:34.750Z,102644.81
2023-01-25T06:03:09.129Z,102635.19
2023-01-25T06:05:43.753Z,102636.97
2023-01-25T06:08:12.715Z,102635.34
2023-01-25T06:10:50.622Z,102481.88
2023-01-25T06:13:19.607Z,102589.84
2023-01-25T06:15:57.554Z,102623.91
2023-01-25T06:18:48.241Z,102636.50
2023-01-25T06:21:26.281Z,102603.41
2023-01-25T06:23:55.752Z,102603.56
2023-01-25T06:26:24.282Z,102616.91
2023-01-25T06:28:53.508Z,102636.31
2023-01-25T06:31:23.464Z,102622.41
2023-01-25T06:33:55.392Z,102604.94
2023-01-25T06:36:24.793Z,102628.63
2023-01-25T06:38:54.314Z,102533.31
2023-01-25T06:41:23.273Z,102368.06
2023-01-25T06:43:53.332Z,102620.31
2023-01-25T06:46:22.140Z,102619.47
2023-01-25T06:48:52.446Z,102613.47
2023-01-25T06:51:21.381Z,102609.06
2023-01-25T06:53:49.771Z,102609.06
2023-01-25T06:56:21.631Z,102556.34
2023-01-25T06:58:50.878Z,102604.47
2023-01-25T07:01:22.057Z,102599.88
2023-01-25T07:03:53.271Z,102600.22
2023-01-25T07:06:22.787Z,102590.25
2023-01-25T07:08:51.622Z,102533.47
2023-01-25T07:11:20.484Z,102595.31
2023-01-25T07:13:49.611Z,102583.38
2023-01-25T07:16:21.802Z,102538.75
2023-01-25T07:18:50.319Z,102576.47
2023-01-25T07:21:22.967Z,102562.59
2023-01-25T07:23:52.302Z,102539.53
2023-01-25T07:26:24.987Z,102574.56
2023-01-25T07:28:54.993Z,102543.47
2023-01-25T07:31:23.914Z,102572.28
2023-01-25T07:33:53.901Z,102566.34
2023-01-25T07:36:28.766Z,102563.19
2023-01-25T07:38:59.230Z,102512.28
2023-01-25T07:41:29.572Z,102250.72
2023-01-25T07:43:58.402Z,102558.84
2023-01-25T07:46:42.821Z,102556.25
2023-01-25T07:49:11.418Z,102518.91
2023-01-25T07:51:41.316Z,102551.25
2023-01-25T07:54:13.314Z,102552.34
2023-01-25T07:56:41.783Z,102553.44
2023-01-25T07:59:14.293Z,102523.13
2023-01-25T08:01:43.023Z,102542.91
2023-01-25T08:04:11.493Z,102544.63
2023-01-25T08:06:41.436Z,102421.28
2023-01-25T08:09:14.478Z,102553.38
2023-01-25T08:11:43.974Z,102499.09
2023-01-25T08:14:12.657Z,102555.09
2023-01-25T08:16:41.424Z,102553.38
2023-01-25T08:19:12.089Z,102548.22
2023-01-25T08:21:42.040Z,102524.47
2023-01-25T08:24:10.773Z,102546.03
2023-01-25T08:26:39.611Z,102546.91
2023-01-25T08:29:08.256Z,102543.31
2023-01-25T08:31:38.238Z,102538.81
2023-01-25T08:34:07.135Z,102479.97
2023-01-25T08:36:35.865Z,102546.53
2023-01-25T08:39:09.069Z,102520.66
2023-01-25T08:41:38.739Z,102471.50
2023-01-25T08:44:07.307Z,102467.13
2023-01-25T08:46:36.015Z,102512.06
2023-01-25T08:49:05.477Z,102499.81
2023-01-25T08:51:34.882Z,102496.75
2023-01-25T08:54:14.077Z,102528.22
2023-01-25T08:56:43.571Z,102512.53
2023-01-25T08:59:13.648Z,102465.09
2023-01-25T09:01:42.087Z,102517.69
2023-01-25T09:04:10.857Z,102518.47
2023-01-25T09:06:39.427Z,102518.44
2023-01-25T09:09:09.963Z,102519.34
2023-01-25T09:11:40.372Z,102517.47
2023-01-25T09:14:09.221Z,102515.84
2023-01-25T09:16:38.845Z,102482.25
2023-01-25T09:19:07.640Z,102512.72
2023-01-25T09:21:37.160Z,102473.44
2023-01-25T09:24:07.701Z,102507.84
2023-01-25T09:26:41.682Z,102502.75
2023-01-25T09:29:13.602Z,102468.84
2023-01-25T09:31:43.867Z,102521.19
2023-01-25T09:34:30.760Z,102512.53
2023-01-25T09:36:59.501Z,102516.06
2023-01-25T09:39:28.000Z,102511.66
2023-01-25T09:42:41.153Z,102514.41
2023-01-25T09:45:32.701Z,102502.28
2023-01-25T09:48:18.858Z,102410.41
2023-01-25T09:51:19.230Z,102503.94
2023-01-25T09:53:52.866Z,102501.44
2023-01-25T09:56:27.515Z,102506.63
2023-01-25T09:59:02.137Z,102447.91
2023-01-25T10:01:45.648Z,102499.66
2023-01-25T10:04:20.081Z,102452.22
2023-01-25T10:07:00.879Z,102470.84
2023-01-25T10:09:43.831Z,102460.16
2023-01-25T10:12:21.450Z,102434.44
2023-01-25T10:14:52.462Z,102454.03
2023-01-25T10:17:31.617Z,102402.31
2023-01-25T10:20:24.993Z,102370.22
2023-01-25T10:23:09.031Z,102475.56
2023-01-25T10:25:46.772Z,102481.06
2023-01-25T10:28:38.923Z,102463.09
2023-01-25T10:31:19.418Z,102430.53
2023-01-25T10:33:50.283Z,102453.75
2023-01-25T10:36:28.947Z,102444.22
2023-01-25T10:39:00.815Z,102443.44
2023-01-25T10:41:40.906Z,102393.41
2023-01-25T10:44:24.548Z,102445.91
2023-01-25T10:47:01.804Z,102436.13
2023-01-25T10:49:41.516Z,102432.41
2023-01-25T10:52:22.258Z,102364.13
2023-01-25T10:55:14.900Z,102418.53
2023-01-25T10:57:46.077Z,102375.75
2023-01-25T11:00:29.881Z,102413.31
2023-01-25T11:03:00.884Z,102405.47
2023-01-25T11:05:34.391Z,102357.75
2023-01-25T11:08:25.143Z,102387.59
2023-01-25T11:10:54.876Z,102387.81
2023-01-25T11:13:27.737Z,102365.44
2023-01-25T11:16:17.173Z,102347.56
2023-01-25T11:18:55.111Z,102380.59
2023-01-25T11:21:26.329Z,102329.31
2023-01-25T11:24:18.460Z,102375.56
2023-01-25T11:26:47.499Z,102267.84
2023-01-25T11:29:19.500Z,102301.91
2023-01-25T11:31:51.528Z,102363.53
2023-01-25T11:34:27.601Z,102341.91
2023-01-25T11:37:20.017Z,102353.28
2023-01-25T11:40:04.380Z,102341.91
2023-01-25T11:42:46.583Z,102258.00
2023-01-25T11:45:46.547Z,102340.44
2023-01-25T11:48:43.496Z,102331.69
2023-01-25T11:51:27.623Z,102328.13
2023-01-25T11:54:23.805Z,102317.78
2023-01-25T11:57:00.440Z,102306.41
2023-01-25T11:59:54.895Z,102310.75
2023-01-25T12:03:17.003Z,102242.97
2023-01-25T12:06:03.035Z,102297.34
2023-01-25T12:08:54.331Z,102292.00
2023-01-25T12:11:41.956Z,102291.88
2023-01-25T12:14:25.799Z,102284.13
2023-01-25T12:17:19.063Z,102283.38
2023-01-25T12:20:12.381Z,102282.34
2023-01-25T12:23:28.486Z,102280.31
2023-01-25T12:26:11.369Z,102273.25
2023-01-25T12:28:48.695Z,102263.91
2023-01-25T12:31:25.379Z,102148.50
2023-01-25T12:34:03.190Z,102227.88
2023-01-25T12:36:37.132Z,102147.63
2023-01-25T12:39:15.156Z,102214.22
2023-01-25T12:41:50.438Z,102244.25
2023-01-25T12:44:26.778Z,102237.13
2023-01-25T12:47:09.037Z,102206.75
2023-01-25T12:49:45.205Z,102224.78
2023-01-25T12:52:25.496Z,102228.22
2023-01-25T12:54:58.489Z,102194.16
2023-01-25T12:57:37.696Z,102229.72
2023-01-25T13:00:20.573Z,102125.59
2023-01-25T13:03:05.423Z,102221.75
2023-01-25T13:05:44.483Z,102212.19
2023-01-25T13:08:32.041Z,102204.34
2023-01-25T13:11:14.504Z,102145.81
2023-01-25T13:13:43.311Z,102194.06
2023-01-25T13:16:43.167Z,102195.03
2023-01-25T13:19:23.707Z,102195.91
2023-01-25T13:21:56.620Z,102068.91
2023-01-25T13:24:27.571Z,102179.91
2023-01-25T13:27:04.837Z,102179.16
2023-01-25T13:29:59.142Z,102147.94
2023-01-25T13:33:06.814Z,102184.59
2023-01-25T13:35:45.653Z,102169.84
2023-01-25T13:38:35.608Z,102169.63
2023-01-25T13:41:16.813Z,102163.50
2023-01-25T13:43:54.351Z,102123.59
2023-01-25T13:46:27.055Z,102152.28
2023-01-25T13:49:08.135Z,102152.16
2023-01-25T13:51:41.900Z,102044.75
2023-01-25T13:54:18.150Z,102141.81
2023-01-25T13:56:47.081Z,102121.28
2023-01-25T13:59:29.648Z,102142.75
2023-01-25T14:02:00.443Z,102140.03
2023-01-25T14:04:30.470Z,102133.97
2023-01-25T14:07:02.971Z,102117.41
2023-01-25T14:09:31.805Z,102138.88
2023-01-25T14:12:04.506Z,102041.06
2023-01-25T14:14:35.992Z,102138.72
2023-01-25T14:17:24.312Z,102123.19
2023-01-25T14:19:56.998Z,102117.13
2023-01-25T14:22:28.677Z,102110.97
2023-01-25T14:25:13.243Z,102117.03
2023-01-25T14:27:48.417Z,102025.31
2023-01-25T14:30:25.899Z,102090.50
2023-01-25T14:32:57.848Z,102101.91
2023-01-25T14:35:53.900Z,102093.03
2023-01-25T14:38:28.596Z,102074.78
2023-01-25T14:41:03.287Z,101980.13
2023-01-25T14:43:33.252Z,101990.94
2023-01-25T14:46:18.578Z,101994.84
2023-01-25T14:48:47.236Z,102082.28
2023-01-25T14:51:28.655Z,102086.59
2023-01-25T14:54:04.969Z,101895.34
2023-01-25T14:56:43.304Z,101998.34
2023-01-25T14:59:33.732Z,102016.94
2023-01-25T15:02:19.111Z,102065.09
2023-01-25T15:05:11.068Z,102065.97
2023-01-25T15:07:48.658Z,102064.97
2023-01-25T15:10:21.604Z,102056.94
2023-01-25T15:13:13.313Z,102060.44
2023-01-25T15:15:54.866Z,102055.19
2023-01-25T15:18:48.055Z,102041.06
2023-01-25T15:21:19.621Z,101954.78
2023-01-25T15:23:52.372Z,101933.38
2023-01-25T15:26:23.739Z,102038.19
2023-01-25T15:28:55.782Z,101953.91
2023-01-25T15:31:29.817Z,102025.06
2023-01-25T15:34:01.919Z,101938.03
2023-01-25T15:36:33.208Z,101977.19
2023-01-25T15:39:02.106Z,102016.94
2023-01-25T15:41:30.901Z,102018.78
2023-01-25T15:44:01.409Z,102012.00
2023-01-25T15:46:33.708Z,102011.50
2023-01-25T15:49:07.158Z,101994.66
2023-01-25T15:51:36.694Z,101983.94
2023-01-25T15:54:07.585Z,101974.16
2023-01-25T15:56:39.017Z,101977.72
2023-01-25T15:59:14.963Z,101984.31
2023-01-25T16:01:43.838Z,101953.53
2023-01-25T16:04:14.703Z,101976.88
2023-01-25T16:06:46.779Z,101977.78
2023-01-25T16:09:20.362Z,101981.28
2023-01-25T16:11:52.580Z,101916.31
2023-01-25T16:14:23.767Z,101968.00
2023-01-25T16:16:54.687Z,101967.00
2023-01-25T16:19:26.263Z,101960.06
2023-01-25T16:21:55.197Z,101961.78
2023-01-25T16:24:24.242Z,101953.19
2023-01-25T16:26:56.913Z,101959.34
2023-01-25T16:29:26.355Z,101948.94
2023-01-25T16:31:55.859Z,101867.88
2023-01-25T16:34:26.362Z,101951.28
2023-01-25T16:36:55.388Z,101947.84
2023-01-25T16:39:26.519Z,101923.75
2023-01-25T16:41:57.282Z,101948.78
2023-01-25T16:44:26.320Z,101947.06
2023-01-25T16:46:55.437Z,101868.06
2023-01-25T16:49:27.605Z,101945.28
2023-01-25T16:51:56.320Z,101939.03
2023-01-25T16:54:26.291Z,101940.75
2023-01-25T16:56:55.924Z,101936.41
2023-01-25T16:59:26.169Z,101916.75
2023-01-25T17:01:54.817Z,101931.50
2023-01-25T17:04:23.286Z,101931.63
2023-01-25T17:06:54.208Z,101935.41
2023-01-25T17:09:25.504Z,101918.06
2023-01-25T17:11:55.357Z,101918.91
2023-01-25T17:14:24.779Z,101917.25
2023-01-25T17:16:53.602Z,101919.03
2023-01-25T17:19:22.716Z,101913.50
2023-01-25T17:24:42.844Z,101910.75
2023-01-25T17:27:11.971Z,101909.81
2023-01-25T17:29:41.166Z,101908.13
2023-01-25T17:32:10.002Z,101901.03
2023-01-25T17:34:38.805Z,101907.19
2023-01-25T17:37:07.776Z,101894.91
2023-01-25T17:39:36.816Z,101904.44
2023-01-25T17:42:09.158Z,101900.81
2023-01-25T17:44:38.107Z,101893.75
2023-01-25T17:47:06.976Z,101893.81
2023-01-25T17:49:36.107Z,101887.66
2023-01-25T17:52:05.308Z,101886.78
2023-01-25T17:54:36.350Z,101887.66
2023-01-25T17:57:06.738Z,101883.31
2023-01-25T17:59:35.570Z,101878.06
2023-01-25T18:02:06.519Z,101871.97
2023-01-25T18:04:35.903Z,101870.31
2023-01-25T18:07:04.920Z,101857.41
2023-01-25T18:09:36.026Z,101855.75
2023-01-25T18:12:06.529Z,101855.75
2023-01-25T18:14:35.624Z,101855.72
2023-01-25T18:17:04.726Z,101845.13
2023-01-25T18:19:33.668Z,101846.94
2023-01-25T18:22:02.598Z,101840.91
2023-01-25T18:24:34.177Z,101624.25
2023-01-25T18:27:08.984Z,101496.34
2023-01-25T18:29:48.980Z,101694.03
2023-01-25T18:32:20.388Z,101829.78
2023-01-25T18:34:49.460Z,101822.00
2023-01-25T18:37:21.908Z,101819.50
2023-01-25T18:39:52.199Z,101818.56
2023-01-25T18:42:24.931Z,101843.06
2023-01-25T18:44:53.834Z,101821.31
2023-01-25T18:47:24.394Z,101739.75
2023-01-25T18:49:54.328Z,101745.91
2023-01-25T18:52:24.644Z,101788.78
2023-01-25T18:54:53.488Z,101782.72
2023-01-25T18:57:24.009Z,101789.91
2023-01-25T18:59:55.758Z,101787.22
2023-01-25T19:02:24.839Z,101780.22
2023-01-25T19:04:53.742Z,101780.19
2023-01-25T19:07:22.545Z,101776.47
2023-01-25T19:09:51.050Z,101767.59
2023-01-25T19:12:19.568Z,101772.16
2023-01-25T19:14:49.612Z,101496.50
2023-01-25T19:17:18.674Z,101769.59
2023-01-25T19:19:47.505Z,101768.00
2023-01-25T19:22:16.486Z,101768.06
2023-01-25T19:24:45.357Z,101764.63
2023-01-25T19:27:14.249Z,101767.28
2023-01-25T19:29:42.922Z,101635.22
2023-01-25T19:32:12.760Z,101551.97
2023-01-25T19:34:41.270Z,101729.00
2023-01-25T19:37:10.108Z,101762.59
2023-01-25T19:39:38.578Z,101736.09
2023-01-25T19:42:07.592Z,101594.28
2023-01-25T19:44:36.067Z,101757.44
2023-01-25T19:47:05.051Z,101707.81
2023-01-25T19:49:34.932Z,101753.97
2023-01-25T19:52:03.643Z,101739.00
2023-01-25T19:54:32.237Z,101742.75
2023-01-25T19:57:00.692Z,101741.91
2023-01-25T19:59:29.568Z,101741.97
2023-01-25T20:01:58.079Z,101561.84
2023-01-25T20:04:26.573Z,101742.66
2023-01-25T20:06:56.758Z,101743.56
2023-01-25T20:09:28.044Z,101739.31
2023-01-25T20:11:57.960Z,101734.91
2023-01-25T20:14:26.466Z,101732.25
2023-01-25T20:16:54.990Z,101726.94
2023-01-25T20:19:23.704Z,101713.72
2023-01-25T20:21:52.294Z,101721.91
2023-01-25T20:24:22.232Z,101723.69
2023-01-25T20:26:51.284Z,101558.19
2023-01-25T20:29:21.502Z,101726.41
2023-01-25T20:31:50.205Z,101719.38
2023-01-25T20:34:21.173Z,101658.09
2023-01-25T20:36:50.982Z,101704.41
2023-01-25T20:39:23.166Z,101583.84
2023-01-25T20:41:53.546Z,101706.38
2023-01-25T20:44:22.431Z,101650.72
2023-01-25T20:46:54.416Z,101641.97
2023-01-25T20:49:23.213Z,101693.34
2023-01-25T20:51:51.903Z,101688.97
2023-01-25T20:54:22.140Z,101689.00
2023-01-25T20:56:50.697Z,101647.53
2023-01-25T20:59:19.385Z,101681.16
2023-01-25T21:01:51.898Z,101677.72
2023-01-25T21:04:20.906Z,101668.97
2023-01-25T21:06:49.295Z,101669.00
2023-01-25T21:09:17.922Z,101671.63
2023-01-25T21:11:48.734Z,101670.78
2023-01-25T21:14:21.090Z,101648.69
2023-01-25T21:16:49.907Z,101663.75
2023-01-25T21:19:18.484Z,101643.19
2023-01-25T21:21:47.428Z,101670.53
2023-01-25T21:24:16.262Z,101653.94
2023-01-25T21:26:45.250Z,101658.28
2023-01-25T21:29:15.461Z,101654.75
2023-01-25T21:31:44.350Z,101649.59
2023-01-25T21:34:13.241Z,101639.28
2023-01-25T21:36:42.091Z,101645.50
2023-01-25T21:39:10.817Z,101436.69
2023-01-25T21:41:39.700Z,101629.78
2023-01-25T21:44:26.048Z,101433.97
2023-01-25T21:47:23.506Z,101510.97
2023-01-25T21:50:02.931Z,101634.94
2023-01-25T21:52:31.435Z,101624.50
2023-01-25T21:55:00.865Z,101632.47
2023-01-25T21:57:30.192Z,101629.84
2023-01-25T21:59:59.086Z,101629.81
2023-01-25T22:02:30.817Z,101631.50
2023-01-25T22:04:59.459Z,101581.13
2023-01-25T22:07:28.300Z,101606.84
2023-01-25T22:09:57.194Z,101628.06
2023-01-25T22:12:28.765Z,101630.69
2023-01-25T22:14:59.438Z,101631.56
2023-01-25T22:17:29.783Z,101628.78
2023-01-25T22:19:58.710Z,101632.19
2023-01-25T22:22:27.530Z,101626.13
2023-01-25T22:24:56.890Z,101625.22
2023-01-25T22:27:38.238Z,101536.00
2023-01-25T22:30:08.941Z,101617.38
2023-01-25T22:32:39.895Z,101606.06
2023-01-25T22:35:10.120Z,101599.78
2023-01-25T22:37:38.965Z,101600.56
2023-01-25T22:40:09.983Z,101590.06
2023-01-25T22:42:39.135Z,101601.28
2023-01-25T22:45:09.317Z,101595.16
2023-01-25T22:47:41.942Z,101599.59
2023-01-25T22:50:12.681Z,101590.06
2023-01-25T22:52:41.758Z,101597.84
2023-01-25T22:55:11.152Z,101465.06
2023-01-25T22:57:40.003Z,101591.88
2023-01-25T23:00:10.881Z,101585.81
2023-01-25T23:02:41.464Z,101586.66
2023-01-25T23:05:10.665Z,101589.28
2023-01-25T23:07:39.500Z,101584.06
2023-01-25T23:10:09.908Z,101530.22
2023-01-25T23:12:38.927Z,101572.75
2023-01-25T23:15:15.468Z,101568.28
2023-01-25T23:18:03.183Z,101565.63
2023-01-25T23:20:32.346Z,101562.13
2023-01-25T23:23:00.905Z,101562.19
2023-01-25T23:25:30.431Z,101560.56
2023-01-25T23:27:59.379Z,101563.06
2023-01-25T23:30:28.287Z,101549.88
2023-01-25T23:32:58.840Z,101548.09
2023-01-25T23:35:27.727Z,101544.59
2023-01-25T23:37:56.604Z,101540.38
2023-01-25T23:40:25.800Z,101544.75
2023-01-25T23:42:54.625Z,101544.66
2023-01-25T23:45:27.474Z,101545.53
2023-01-25T23:47:59.617Z,101542.03
2023-01-25T23:50:28.559Z,101535.75
2023-01-25T23:52:57.515Z,101537.41
2023-01-25T23:55:26.504Z,101533.75
2023-01-25T23:57:55.747Z,101531.31
